sensor_id;sensor_type;location;lat;lon;timestamp;temperature;humidity
25923;DHT22;13725;51.170;4.442;2024-03-08T00:01:10;5.70;99.90
25923;DHT22;13725;51.170;4.442;2024-03-08T00:03:36;5.70;99.90
25923;DHT22;13725;51.170;4.442;2024-03-08T00:06:02;5.60;99.90
25923;DHT22;13725;51.170;4.442;2024-03-08T00:08:28;5.60;99.90
25923;DHT22;13725;51.170;4.442;2024-03-08T00:10:53;5.50;99.90
25923;DHT22;13725;51.170;4.442;2024-03-08T00:13:19;5.50;99.90
25923;DHT22;13725;51.170;4.442;2024-03-08T00:15:45;5.50;99.90
25923;DHT22;13725;51.170;4.442;2024-03-08T00:18:11;5.50;99.90
25923;DHT22;13725;51.170;4.442;2024-03-08T00:20:37;5.50;99.90
25923;DHT22;13725;51.170;4.442;2024-03-08T00:23:03;5.50;99.90
25923;DHT22;13725;51.170;4.442;2024-03-08T00:25:29;5.40;99.90
25923;DHT22;13725;51.170;4.442;2024-03-08T00:27:55;5.30;99.90
25923;DHT22;13725;51.170;4.442;2024-03-08T00:30:25;5.30;99.90
25923;DHT22;13725;51.170;4.442;2024-03-08T00:32:51;5.30;99.90
25923;DHT22;13725;51.170;4.442;2024-03-08T00:35:16;5.20;99.90
25923;DHT22;13725;51.170;4.442;2024-03-08T00:37:43;5.30;99.90
25923;DHT22;13725;51.170;4.442;2024-03-08T00:40:12;5.30;99.90
25923;DHT22;13725;51.170;4.442;2024-03-08T00:42:38;5.30;99.90
25923;DHT22;13725;51.170;4.442;2024-03-08T00:45:05;5.20;99.90
25923;DHT22;13725;51.170;4.442;2024-03-08T00:47:31;5.20;99.90
25923;DHT22;13725;51.170;4.442;2024-03-08T00:49:57;5.20;99.90
25923;DHT22;13725;51.170;4.442;2024-03-08T00:52:23;5.30;99.90
25923;DHT22;13725;51.170;4.442;2024-03-08T00:54:50;5.20;99.90
25923;DHT22;13725;51.170;4.442;2024-03-08T00:57:15;5.20;99.90
25923;DHT22;13725;51.170;4.442;2024-03-08T00:59:41;5.20;99.90
25923;DHT22;13725;51.170;4.442;2024-03-08T01:02:07;5.10;99.90
25923;DHT22;13725;51.170;4.442;2024-03-08T01:04:34;5.10;99.90
25923;DHT22;13725;51.170;4.442;2024-03-08T01:07:01;5.10;99.90
25923;DHT22;13725;51.170;4.442;2024-03-08T01:09:27;5.20;99.90
25923;DHT22;13725;51.170;4.442;2024-03-08T01:11:54;5.20;99.90
25923;DHT22;13725;51.170;4.442;2024-03-08T01:14:21;5.20;99.90
25923;DHT22;13725;51.170;4.442;2024-03-08T01:16:50;5.10;99.90
25923;DHT22;13725;51.170;4.442;2024-03-08T01:19:15;5.00;99.90
25923;DHT22;13725;51.170;4.442;2024-03-08T01:21:41;5.00;99.90
25923;DHT22;13725;51.170;4.442;2024-03-08T01:24:07;5.00;99.90
25923;DHT22;13725;51.170;4.442;2024-03-08T01:26:33;5.00;99.90
25923;DHT22;13725;51.170;4.442;2024-03-08T01:29:03;5.00;99.90
25923;DHT22;13725;51.170;4.442;2024-03-08T01:31:32;4.90;99.90
25923;DHT22;13725;51.170;4.442;2024-03-08T01:33:58;5.00;99.90
25923;DHT22;13725;51.170;4.442;2024-03-08T01:36:24;5.00;99.90
25923;DHT22;13725;51.170;4.442;2024-03-08T01:38:50;4.90;99.90
25923;DHT22;13725;51.170;4.442;2024-03-08T01:41:16;4.90;99.90
25923;DHT22;13725;51.170;4.442;2024-03-08T01:43:44;4.80;99.90
25923;DHT22;13725;51.170;4.442;2024-03-08T01:46:12;4.80;99.90
25923;DHT22;13725;51.170;4.442;2024-03-08T01:48:41;4.80;99.90
25923;DHT22;13725;51.170;4.442;2024-03-08T01:51:07;4.70;99.90
25923;DHT22;13725;51.170;4.442;2024-03-08T01:53:34;4.70;99.90
25923;DHT22;13725;51.170;4.442;2024-03-08T01:56:01;4.60;99.90
25923;DHT22;13725;51.170;4.442;2024-03-08T01:58:29;4.60;99.90
25923;DHT22;13725;51.170;4.442;2024-03-08T02:00:56;4.70;99.90
25923;DHT22;13725;51.170;4.442;2024-03-08T02:03:23;4.60;99.90
25923;DHT22;13725;51.170;4.442;2024-03-08T02:05:49;4.60;99.90
25923;DHT22;13725;51.170;4.442;2024-03-08T02:08:17;4.60;99.90
25923;DHT22;13725;51.170;4.442;2024-03-08T02:10:46;4.60;99.90
25923;DHT22;13725;51.170;4.442;2024-03-08T02:13:12;4.60;99.90
25923;DHT22;13725;51.170;4.442;2024-03-08T02:15:58;4.60;99.90
25923;DHT22;13725;51.170;4.442;2024-03-08T02:18:30;4.60;99.90
25923;DHT22;13725;51.170;4.442;2024-03-08T02:20:57;4.60;99.90
25923;DHT22;13725;51.170;4.442;2024-03-08T02:23:23;4.60;99.90
25923;DHT22;13725;51.170;4.442;2024-03-08T02:25:53;4.70;99.90
25923;DHT22;13725;51.170;4.442;2024-03-08T02:28:19;4.60;99.90
25923;DHT22;13725;51.170;4.442;2024-03-08T02:30:46;4.50;99.90
25923;DHT22;13725;51.170;4.442;2024-03-08T02:33:17;4.40;99.90
25923;DHT22;13725;51.170;4.442;2024-03-08T02:35:44;4.40;99.90
25923;DHT22;13725;51.170;4.442;2024-03-08T02:38:17;4.30;99.90
25923;DHT22;13725;51.170;4.442;2024-03-08T02:40:44;4.30;99.90
25923;DHT22;13725;51.170;4.442;2024-03-08T02:43:12;4.30;99.90
25923;DHT22;13725;51.170;4.442;2024-03-08T02:45:38;4.30;99.90
25923;DHT22;13725;51.170;4.442;2024-03-08T02:48:04;4.30;99.90
25923;DHT22;13725;51.170;4.442;2024-03-08T02:50:32;4.30;99.90
25923;DHT22;13725;51.170;4.442;2024-03-08T02:53:03;4.30;99.90
25923;DHT22;13725;51.170;4.442;2024-03-08T02:55:29;4.30;99.90
25923;DHT22;13725;51.170;4.442;2024-03-08T02:57:55;4.20;99.90
25923;DHT22;13725;51.170;4.442;2024-03-08T03:00:23;4.20;99.90
25923;DHT22;13725;51.170;4.442;2024-03-08T03:02:52;4.20;99.90
25923;DHT22;13725;51.170;4.442;2024-03-08T03:05:25;4.10;99.90
25923;DHT22;13725;51.170;4.442;2024-03-08T03:07:51;4.10;99.90
25923;DHT22;13725;51.170;4.442;2024-03-08T03:10:18;4.10;99.90
25923;DHT22;13725;51.170;4.442;2024-03-08T03:12:45;4.10;99.90
25923;DHT22;13725;51.170;4.442;2024-03-08T03:15:12;4.10;99.90
25923;DHT22;13725;51.170;4.442;2024-03-08T03:17:38;4.00;99.90
25923;DHT22;13725;51.170;4.442;2024-03-08T03:20:07;4.00;99.90
25923;DHT22;13725;51.170;4.442;2024-03-08T03:22:38;4.00;99.90
25923;DHT22;13725;51.170;4.442;2024-03-08T03:25:04;4.00;99.90
25923;DHT22;13725;51.170;4.442;2024-03-08T03:27:32;3.80;99.90
25923;DHT22;13725;51.170;4.442;2024-03-08T03:29:58;3.90;99.90
25923;DHT22;13725;51.170;4.442;2024-03-08T03:32:24;3.90;99.90
25923;DHT22;13725;51.170;4.442;2024-03-08T03:34:50;3.90;99.90
25923;DHT22;13725;51.170;4.442;2024-03-08T03:37:19;3.80;99.90
25923;DHT22;13725;51.170;4.442;2024-03-08T03:39:45;3.80;99.90
25923;DHT22;13725;51.170;4.442;2024-03-08T03:42:19;3.70;99.90
25923;DHT22;13725;51.170;4.442;2024-03-08T03:44:48;3.70;99.90
25923;DHT22;13725;51.170;4.442;2024-03-08T03:47:15;3.70;99.90
25923;DHT22;13725;51.170;4.442;2024-03-08T03:49:41;3.70;99.90
25923;DHT22;13725;51.170;4.442;2024-03-08T03:52:08;3.70;99.90
25923;DHT22;13725;51.170;4.442;2024-03-08T03:54:34;3.80;99.90
25923;DHT22;13725;51.170;4.442;2024-03-08T03:56:59;3.80;99.90
25923;DHT22;13725;51.170;4.442;2024-03-08T03:59:26;3.80;99.90
25923;DHT22;13725;51.170;4.442;2024-03-08T04:01:53;3.80;99.90
25923;DHT22;13725;51.170;4.442;2024-03-08T04:04:20;3.80;99.90
25923;DHT22;13725;51.170;4.442;2024-03-08T04:06:46;3.70;99.90
25923;DHT22;13725;51.170;4.442;2024-03-08T04:09:12;3.70;99.90
25923;DHT22;13725;51.170;4.442;2024-03-08T04:11:38;3.70;99.90
25923;DHT22;13725;51.170;4.442;2024-03-08T04:14:04;3.60;99.90
25923;DHT22;13725;51.170;4.442;2024-03-08T04:16:31;3.60;99.90
25923;DHT22;13725;51.170;4.442;2024-03-08T04:18:57;3.60;99.90
25923;DHT22;13725;51.170;4.442;2024-03-08T04:21:23;3.60;99.90
25923;DHT22;13725;51.170;4.442;2024-03-08T04:23:49;3.50;99.90
25923;DHT22;13725;51.170;4.442;2024-03-08T04:26:15;3.50;99.90
25923;DHT22;13725;51.170;4.442;2024-03-08T04:28:40;3.40;99.90
25923;DHT22;13725;51.170;4.442;2024-03-08T04:31:07;3.50;99.90
25923;DHT22;13725;51.170;4.442;2024-03-08T04:33:33;3.40;99.90
25923;DHT22;13725;51.170;4.442;2024-03-08T04:36:01;3.40;99.90
25923;DHT22;13725;51.170;4.442;2024-03-08T04:38:30;3.40;99.90
25923;DHT22;13725;51.170;4.442;2024-03-08T04:40:57;3.40;99.90
25923;DHT22;13725;51.170;4.442;2024-03-08T04:43:23;3.50;99.90
25923;DHT22;13725;51.170;4.442;2024-03-08T04:45:52;3.40;99.90
25923;DHT22;13725;51.170;4.442;2024-03-08T04:48:18;3.40;99.90
25923;DHT22;13725;51.170;4.442;2024-03-08T04:50:43;3.40;99.90
25923;DHT22;13725;51.170;4.442;2024-03-08T04:53:11;3.40;99.90
25923;DHT22;13725;51.170;4.442;2024-03-08T04:55:36;3.30;99.90
25923;DHT22;13725;51.170;4.442;2024-03-08T04:58:03;3.30;99.90
25923;DHT22;13725;51.170;4.442;2024-03-08T05:00:32;3.30;99.90
25923;DHT22;13725;51.170;4.442;2024-03-08T05:02:58;3.30;99.90
25923;DHT22;13725;51.170;4.442;2024-03-08T05:05:24;3.30;99.90
25923;DHT22;13725;51.170;4.442;2024-03-08T05:07:50;3.40;99.90
25923;DHT22;13725;51.170;4.442;2024-03-08T05:10:16;3.40;99.90
25923;DHT22;13725;51.170;4.442;2024-03-08T05:12:43;3.30;99.90
25923;DHT22;13725;51.170;4.442;2024-03-08T05:15:09;3.30;99.90
25923;DHT22;13725;51.170;4.442;2024-03-08T05:17:35;3.20;99.90
25923;DHT22;13725;51.170;4.442;2024-03-08T05:20:02;3.20;99.90
25923;DHT22;13725;51.170;4.442;2024-03-08T05:22:27;3.20;99.90
25923;DHT22;13725;51.170;4.442;2024-03-08T05:24:53;3.20;99.90
25923;DHT22;13725;51.170;4.442;2024-03-08T05:27:19;3.20;99.90
25923;DHT22;13725;51.170;4.442;2024-03-08T05:29:45;3.20;99.90
25923;DHT22;13725;51.170;4.442;2024-03-08T05:32:11;3.20;99.90
25923;DHT22;13725;51.170;4.442;2024-03-08T05:34:37;3.20;99.90
25923;DHT22;13725;51.170;4.442;2024-03-08T05:37:04;3.10;99.90
25923;DHT22;13725;51.170;4.442;2024-03-08T05:39:30;3.00;99.90
25923;DHT22;13725;51.170;4.442;2024-03-08T05:41:56;3.00;99.90
25923;DHT22;13725;51.170;4.442;2024-03-08T05:44:22;3.10;99.90
25923;DHT22;13725;51.170;4.442;2024-03-08T05:46:48;3.10;99.90
25923;DHT22;13725;51.170;4.442;2024-03-08T05:49:13;3.10;99.90
25923;DHT22;13725;51.170;4.442;2024-03-08T05:51:40;3.10;99.90
25923;DHT22;13725;51.170;4.442;2024-03-08T05:54:07;3.00;99.90
25923;DHT22;13725;51.170;4.442;2024-03-08T05:56:36;3.00;99.90
25923;DHT22;13725;51.170;4.442;2024-03-08T05:59:03;3.00;99.90
25923;DHT22;13725;51.170;4.442;2024-03-08T06:01:29;3.20;99.90
25923;DHT22;13725;51.170;4.442;2024-03-08T06:03:57;3.10;99.90
25923;DHT22;13725;51.170;4.442;2024-03-08T06:06:26;3.10;99.90
25923;DHT22;13725;51.170;4.442;2024-03-08T06:08:52;3.10;99.90
25923;DHT22;13725;51.170;4.442;2024-03-08T06:11:19;3.00;99.90
25923;DHT22;13725;51.170;4.442;2024-03-08T06:13:48;3.20;99.90
25923;DHT22;13725;51.170;4.442;2024-03-08T06:16:15;3.10;99.90
25923;DHT22;13725;51.170;4.442;2024-03-08T06:18:42;3.00;99.90
25923;DHT22;13725;51.170;4.442;2024-03-08T06:21:08;2.80;99.90
25923;DHT22;13725;51.170;4.442;2024-03-08T06:23:37;2.90;99.90
25923;DHT22;13725;51.170;4.442;2024-03-08T06:26:07;2.90;99.90
25923;DHT22;13725;51.170;4.442;2024-03-08T06:28:34;2.90;99.90
25923;DHT22;13725;51.170;4.442;2024-03-08T06:31:03;3.00;99.90
25923;DHT22;13725;51.170;4.442;2024-03-08T06:33:28;3.00;99.90
25923;DHT22;13725;51.170;4.442;2024-03-08T06:35:55;3.10;99.90
25923;DHT22;13725;51.170;4.442;2024-03-08T06:38:24;3.00;99.90
25923;DHT22;13725;51.170;4.442;2024-03-08T06:40:50;3.10;99.90
25923;DHT22;13725;51.170;4.442;2024-03-08T06:43:17;3.20;99.90
25923;DHT22;13725;51.170;4.442;2024-03-08T06:45:44;3.30;99.90
25923;DHT22;13725;51.170;4.442;2024-03-08T06:48:17;3.40;99.90
25923;DHT22;13725;51.170;4.442;2024-03-08T06:50:44;3.50;99.90
25923;DHT22;13725;51.170;4.442;2024-03-08T06:53:11;3.80;99.90
25923;DHT22;13725;51.170;4.442;2024-03-08T06:55:36;4.00;99.90
25923;DHT22;13725;51.170;4.442;2024-03-08T06:58:02;4.20;99.90
25923;DHT22;13725;51.170;4.442;2024-03-08T07:00:28;4.50;99.90
25923;DHT22;13725;51.170;4.442;2024-03-08T07:02:56;5.10;99.90
25923;DHT22;13725;51.170;4.442;2024-03-08T07:05:29;5.40;99.90
25923;DHT22;13725;51.170;4.442;2024-03-08T07:07:56;6.00;99.90
25923;DHT22;13725;51.170;4.442;2024-03-08T07:10:22;6.40;99.90
25923;DHT22;13725;51.170;4.442;2024-03-08T07:12:51;6.80;99.90
25923;DHT22;13725;51.170;4.442;2024-03-08T07:15:19;6.80;99.90
25923;DHT22;13725;51.170;4.442;2024-03-08T07:17:48;7.10;99.90
25923;DHT22;13725;51.170;4.442;2024-03-08T07:20:14;7.60;99.90
25923;DHT22;13725;51.170;4.442;2024-03-08T07:22:41;8.10;99.90
25923;DHT22;13725;51.170;4.442;2024-03-08T07:25:08;8.20;99.90
25923;DHT22;13725;51.170;4.442;2024-03-08T07:27:52;7.80;99.90
25923;DHT22;13725;51.170;4.442;2024-03-08T07:30:25;7.70;99.90
25923;DHT22;13725;51.170;4.442;2024-03-08T07:33:10;7.40;99.90
25923;DHT22;13725;51.170;4.442;2024-03-08T07:35:39;6.70;99.90
25923;DHT22;13725;51.170;4.442;2024-03-08T07:38:09;6.30;99.90
25923;DHT22;13725;51.170;4.442;2024-03-08T07:40:36;5.90;99.90
25923;DHT22;13725;51.170;4.442;2024-03-08T07:43:04;5.90;99.90
25923;DHT22;13725;51.170;4.442;2024-03-08T07:45:30;5.80;99.90
25923;DHT22;13725;51.170;4.442;2024-03-08T07:47:56;5.70;99.90
25923;DHT22;13725;51.170;4.442;2024-03-08T07:50:22;5.90;99.90
25923;DHT22;13725;51.170;4.442;2024-03-08T07:52:48;5.70;99.90
25923;DHT22;13725;51.170;4.442;2024-03-08T07:55:14;5.60;99.90
25923;DHT22;13725;51.170;4.442;2024-03-08T07:57:40;5.60;99.90
25923;DHT22;13725;51.170;4.442;2024-03-08T08:00:08;5.70;99.90
25923;DHT22;13725;51.170;4.442;2024-03-08T08:02:35;5.50;99.90
25923;DHT22;13725;51.170;4.442;2024-03-08T08:05:01;5.50;99.90
25923;DHT22;13725;51.170;4.442;2024-03-08T08:07:29;5.50;99.90
25923;DHT22;13725;51.170;4.442;2024-03-08T08:09:55;5.70;99.90
25923;DHT22;13725;51.170;4.442;2024-03-08T08:12:20;5.70;99.90
25923;DHT22;13725;51.170;4.442;2024-03-08T08:14:46;6.10;99.90
25923;DHT22;13725;51.170;4.442;2024-03-08T08:17:12;6.60;99.90
25923;DHT22;13725;51.170;4.442;2024-03-08T08:19:40;7.50;99.90
25923;DHT22;13725;51.170;4.442;2024-03-08T08:22:06;8.70;99.90
25923;DHT22;13725;51.170;4.442;2024-03-08T08:24:34;9.50;99.90
25923;DHT22;13725;51.170;4.442;2024-03-08T08:27:02;10.10;99.90
25923;DHT22;13725;51.170;4.442;2024-03-08T08:29:28;10.40;99.90
25923;DHT22;13725;51.170;4.442;2024-03-08T08:31:54;11.30;99.90
25923;DHT22;13725;51.170;4.442;2024-03-08T08:34:19;11.80;99.90
25923;DHT22;13725;51.170;4.442;2024-03-08T08:36:49;12.10;99.90
25923;DHT22;13725;51.170;4.442;2024-03-08T08:39:15;12.60;99.90
25923;DHT22;13725;51.170;4.442;2024-03-08T08:41:42;12.40;99.90
25923;DHT22;13725;51.170;4.442;2024-03-08T08:44:08;12.20;99.90
25923;DHT22;13725;51.170;4.442;2024-03-08T08:46:38;12.50;99.90
25923;DHT22;13725;51.170;4.442;2024-03-08T08:49:04;12.50;99.90
25923;DHT22;13725;51.170;4.442;2024-03-08T08:51:31;12.50;99.90
25923;DHT22;13725;51.170;4.442;2024-03-08T08:53:59;13.40;99.90
25923;DHT22;13725;51.170;4.442;2024-03-08T08:56:25;14.80;99.90
25923;DHT22;13725;51.170;4.442;2024-03-08T09:13:14;13.70;99.90
25923;DHT22;13725;51.170;4.442;2024-03-08T09:15:40;13.30;99.90
25923;DHT22;13725;51.170;4.442;2024-03-08T09:18:07;13.20;99.90
25923;DHT22;13725;51.170;4.442;2024-03-08T09:20:34;13.70;99.90
25923;DHT22;13725;51.170;4.442;2024-03-08T09:23:00;13.80;99.90
25923;DHT22;13725;51.170;4.442;2024-03-08T09:25:26;14.10;99.90
25923;DHT22;13725;51.170;4.442;2024-03-08T09:27:52;14.90;99.90
25923;DHT22;13725;51.170;4.442;2024-03-08T09:30:17;15.70;99.90
25923;DHT22;13725;51.170;4.442;2024-03-08T09:32:43;14.60;99.90
25923;DHT22;13725;51.170;4.442;2024-03-08T09:35:09;15.40;99.90
25923;DHT22;13725;51.170;4.442;2024-03-08T09:37:36;14.90;99.90
25923;DHT22;13725;51.170;4.442;2024-03-08T09:40:03;14.90;99.90
25923;DHT22;13725;51.170;4.442;2024-03-08T09:42:35;14.90;99.90
25923;DHT22;13725;51.170;4.442;2024-03-08T09:45:09;15.90;99.90
25923;DHT22;13725;51.170;4.442;2024-03-08T09:47:41;15.80;99.90
25923;DHT22;13725;51.170;4.442;2024-03-08T09:50:08;15.90;99.90
25923;DHT22;13725;51.170;4.442;2024-03-08T09:52:42;16.10;98.40
25923;DHT22;13725;51.170;4.442;2024-03-08T09:55:12;17.10;97.50
25923;DHT22;13725;51.170;4.442;2024-03-08T09:57:38;17.40;95.70
25923;DHT22;13725;51.170;4.442;2024-03-08T10:00:05;17.30;95.90
25923;DHT22;13725;51.170;4.442;2024-03-08T10:02:47;16.80;95.00
25923;DHT22;13725;51.170;4.442;2024-03-08T10:05:14;17.20;94.50
25923;DHT22;13725;51.170;4.442;2024-03-08T10:07:40;17.00;98.30
25923;DHT22;13725;51.170;4.442;2024-03-08T10:10:06;17.90;95.30
25923;DHT22;13725;51.170;4.442;2024-03-08T10:12:34;18.30;93.60
25923;DHT22;13725;51.170;4.442;2024-03-08T10:15:00;17.50;92.10
25923;DHT22;13725;51.170;4.442;2024-03-08T10:17:26;17.40;92.30
25923;DHT22;13725;51.170;4.442;2024-03-08T10:19:52;17.50;93.20
25923;DHT22;13725;51.170;4.442;2024-03-08T10:22:19;18.00;93.00
25923;DHT22;13725;51.170;4.442;2024-03-08T10:24:48;18.70;91.70
25923;DHT22;13725;51.170;4.442;2024-03-08T10:27:17;20.50;89.20
25923;DHT22;13725;51.170;4.442;2024-03-08T10:29:45;20.20;82.60
25923;DHT22;13725;51.170;4.442;2024-03-08T10:32:11;19.50;82.30
25923;DHT22;13725;51.170;4.442;2024-03-08T10:34:37;18.40;87.50
25923;DHT22;13725;51.170;4.442;2024-03-08T10:37:04;18.60;87.70
25923;DHT22;13725;51.170;4.442;2024-03-08T10:39:37;18.80;86.60
25923;DHT22;13725;51.170;4.442;2024-03-08T10:42:04;20.40;82.80
25923;DHT22;13725;51.170;4.442;2024-03-08T10:47:26;19.60;81.40
25923;DHT22;13725;51.170;4.442;2024-03-08T10:52:31;19.70;80.00
25923;DHT22;13725;51.170;4.442;2024-03-08T10:54:57;19.00;82.20
25923;DHT22;13725;51.170;4.442;2024-03-08T10:57:24;18.10;81.10
25923;DHT22;13725;51.170;4.442;2024-03-08T10:59:51;18.70;82.90
25923;DHT22;13725;51.170;4.442;2024-03-08T11:02:19;19.30;79.90
25923;DHT22;13725;51.170;4.442;2024-03-08T11:04:49;20.10;80.20
25923;DHT22;13725;51.170;4.442;2024-03-08T11:07:16;21.50;77.70
25923;DHT22;13725;51.170;4.442;2024-03-08T11:09:44;20.40;75.80
25923;DHT22;13725;51.170;4.442;2024-03-08T11:12:37;20.10;78.40
25923;DHT22;13725;51.170;4.442;2024-03-08T11:15:11;20.40;76.20
25923;DHT22;13725;51.170;4.442;2024-03-08T11:20:12;19.70;81.10
25923;DHT22;13725;51.170;4.442;2024-03-08T11:25:38;20.60;77.30
25923;DHT22;13725;51.170;4.442;2024-03-08T11:28:20;21.30;78.20
25923;DHT22;13725;51.170;4.442;2024-03-08T11:33:35;20.50;76.00
25923;DHT22;13725;51.170;4.442;2024-03-08T11:36:08;20.00;75.60
25923;DHT22;13725;51.170;4.442;2024-03-08T11:38:41;19.80;76.60
25923;DHT22;13725;51.170;4.442;2024-03-08T11:41:07;19.70;77.10
25923;DHT22;13725;51.170;4.442;2024-03-08T11:43:33;19.70;75.90
25923;DHT22;13725;51.170;4.442;2024-03-08T11:46:09;20.00;76.70
25923;DHT22;13725;51.170;4.442;2024-03-08T11:48:35;20.10;78.30
25923;DHT22;13725;51.170;4.442;2024-03-08T11:51:04;19.60;78.00
25923;DHT22;13725;51.170;4.442;2024-03-08T11:53:30;20.30;74.70
25923;DHT22;13725;51.170;4.442;2024-03-08T11:56:15;20.60;76.30
25923;DHT22;13725;51.170;4.442;2024-03-08T11:58:41;20.50;73.30
25923;DHT22;13725;51.170;4.442;2024-03-08T12:01:09;20.30;74.60
25923;DHT22;13725;51.170;4.442;2024-03-08T12:03:41;19.20;76.40
25923;DHT22;13725;51.170;4.442;2024-03-08T12:06:10;19.80;75.60
25923;DHT22;13725;51.170;4.442;2024-03-08T12:08:36;20.20;75.20
25923;DHT22;13725;51.170;4.442;2024-03-08T12:11:05;19.80;74.00
25923;DHT22;13725;51.170;4.442;2024-03-08T12:13:32;20.10;74.00
25923;DHT22;13725;51.170;4.442;2024-03-08T12:16:03;19.80;75.80
25923;DHT22;13725;51.170;4.442;2024-03-08T12:18:38;19.50;77.50
25923;DHT22;13725;51.170;4.442;2024-03-08T12:21:08;19.50;75.80
25923;DHT22;13725;51.170;4.442;2024-03-08T12:23:38;19.90;76.80
25923;DHT22;13725;51.170;4.442;2024-03-08T12:28:40;18.90;79.00
25923;DHT22;13725;51.170;4.442;2024-03-08T12:31:11;19.80;78.10
25923;DHT22;13725;51.170;4.442;2024-03-08T12:36:15;19.20;77.40
25923;DHT22;13725;51.170;4.442;2024-03-08T12:38:45;19.40;76.60
25923;DHT22;13725;51.170;4.442;2024-03-08T12:41:17;19.60;75.40
25923;DHT22;13725;51.170;4.442;2024-03-08T12:43:44;19.30;75.90
25923;DHT22;13725;51.170;4.442;2024-03-08T12:46:20;18.80;78.00
25923;DHT22;13725;51.170;4.442;2024-03-08T12:48:46;18.90;78.50
25923;DHT22;13725;51.170;4.442;2024-03-08T12:51:16;19.70;78.50
25923;DHT22;13725;51.170;4.442;2024-03-08T12:53:44;19.50;78.20
25923;DHT22;13725;51.170;4.442;2024-03-08T12:56:10;19.60;77.10
25923;DHT22;13725;51.170;4.442;2024-03-08T12:58:36;19.50;78.90
25923;DHT22;13725;51.170;4.442;2024-03-08T13:01:03;19.70;76.70
25923;DHT22;13725;51.170;4.442;2024-03-08T13:03:35;19.50;79.80
25923;DHT22;13725;51.170;4.442;2024-03-08T13:06:05;18.90;82.90
25923;DHT22;13725;51.170;4.442;2024-03-08T13:08:37;18.70;83.20
25923;DHT22;13725;51.170;4.442;2024-03-08T13:11:09;19.40;82.00
25923;DHT22;13725;51.170;4.442;2024-03-08T13:13:37;20.00;77.60
25923;DHT22;13725;51.170;4.442;2024-03-08T13:16:06;20.30;77.00
25923;DHT22;13725;51.170;4.442;2024-03-08T13:18:35;19.50;77.90
25923;DHT22;13725;51.170;4.442;2024-03-08T13:21:01;19.10;78.10
25923;DHT22;13725;51.170;4.442;2024-03-08T13:23:34;18.90;81.60
25923;DHT22;13725;51.170;4.442;2024-03-08T13:26:08;18.80;84.40
25923;DHT22;13725;51.170;4.442;2024-03-08T13:28:34;18.70;81.00
25923;DHT22;13725;51.170;4.442;2024-03-08T13:31:06;19.20;80.00
25923;DHT22;13725;51.170;4.442;2024-03-08T13:33:38;19.40;83.40
25923;DHT22;13725;51.170;4.442;2024-03-08T13:36:08;19.20;79.30
25923;DHT22;13725;51.170;4.442;2024-03-08T13:38:44;19.00;80.50
25923;DHT22;13725;51.170;4.442;2024-03-08T13:41:14;19.30;82.50
25923;DHT22;13725;51.170;4.442;2024-03-08T13:43:41;19.50;77.80
25923;DHT22;13725;51.170;4.442;2024-03-08T13:46:07;19.20;81.60
25923;DHT22;13725;51.170;4.442;2024-03-08T13:48:33;18.70;79.40
25923;DHT22;13725;51.170;4.442;2024-03-08T13:50:59;18.80;82.40
25923;DHT22;13725;51.170;4.442;2024-03-08T13:53:26;19.10;82.80
25923;DHT22;13725;51.170;4.442;2024-03-08T13:55:52;19.40;79.30
25923;DHT22;13725;51.170;4.442;2024-03-08T13:58:18;19.20;79.90
25923;DHT22;13725;51.170;4.442;2024-03-08T14:00:46;18.80;82.30
25923;DHT22;13725;51.170;4.442;2024-03-08T14:03:13;18.10;81.40
25923;DHT22;13725;51.170;4.442;2024-03-08T14:05:40;17.50;84.10
25923;DHT22;13725;51.170;4.442;2024-03-08T14:08:07;17.40;86.80
25923;DHT22;13725;51.170;4.442;2024-03-08T14:10:36;17.40;87.40
25923;DHT22;13725;51.170;4.442;2024-03-08T14:13:05;17.60;85.30
25923;DHT22;13725;51.170;4.442;2024-03-08T14:15:32;17.40;86.10
25923;DHT22;13725;51.170;4.442;2024-03-08T14:17:58;17.30;84.60
25923;DHT22;13725;51.170;4.442;2024-03-08T14:20:25;17.00;87.50
25923;DHT22;13725;51.170;4.442;2024-03-08T14:22:54;16.70;87.60
25923;DHT22;13725;51.170;4.442;2024-03-08T14:25:20;16.70;88.20
25923;DHT22;13725;51.170;4.442;2024-03-08T14:27:50;16.70;90.10
25923;DHT22;13725;51.170;4.442;2024-03-08T14:30:17;16.40;90.20
25923;DHT22;13725;51.170;4.442;2024-03-08T14:33:07;16.20;90.40
25923;DHT22;13725;51.170;4.442;2024-03-08T14:35:37;16.00;91.10
25923;DHT22;13725;51.170;4.442;2024-03-08T14:38:03;16.00;91.20
25923;DHT22;13725;51.170;4.442;2024-03-08T14:40:29;15.90;91.60
25923;DHT22;13725;51.170;4.442;2024-03-08T14:42:56;15.60;92.20
25923;DHT22;13725;51.170;4.442;2024-03-08T14:45:22;15.50;92.70
25923;DHT22;13725;51.170;4.442;2024-03-08T14:47:49;15.30;93.10
25923;DHT22;13725;51.170;4.442;2024-03-08T14:50:19;15.00;94.80
25923;DHT22;13725;51.170;4.442;2024-03-08T14:52:45;14.70;94.40
25923;DHT22;13725;51.170;4.442;2024-03-08T14:55:21;14.40;95.60
25923;DHT22;13725;51.170;4.442;2024-03-08T14:57:51;14.10;96.20
25923;DHT22;13725;51.170;4.442;2024-03-08T15:00:18;13.90;96.90
25923;DHT22;13725;51.170;4.442;2024-03-08T15:02:59;13.70;97.90
25923;DHT22;13725;51.170;4.442;2024-03-08T15:05:25;13.70;99.90
25923;DHT22;13725;51.170;4.442;2024-03-08T15:07:57;13.70;99.30
25923;DHT22;13725;51.170;4.442;2024-03-08T15:10:26;13.60;99.70
25923;DHT22;13725;51.170;4.442;2024-03-08T15:12:52;13.30;99.80
25923;DHT22;13725;51.170;4.442;2024-03-08T15:15:25;13.30;99.90
25923;DHT22;13725;51.170;4.442;2024-03-08T15:17:51;13.20;99.90
25923;DHT22;13725;51.170;4.442;2024-03-08T15:20:19;13.10;99.90
25923;DHT22;13725;51.170;4.442;2024-03-08T15:22:54;13.10;99.90
25923;DHT22;13725;51.170;4.442;2024-03-08T15:25:21;13.00;99.90
25923;DHT22;13725;51.170;4.442;2024-03-08T15:27:55;13.10;99.90
25923;DHT22;13725;51.170;4.442;2024-03-08T15:30:21;13.20;99.90
25923;DHT22;13725;51.170;4.442;2024-03-08T15:32:54;13.10;99.90
25923;DHT22;13725;51.170;4.442;2024-03-08T15:35:25;13.00;99.90
25923;DHT22;13725;51.170;4.442;2024-03-08T15:37:52;12.80;99.90
25923;DHT22;13725;51.170;4.442;2024-03-08T15:40:18;12.80;99.90
25923;DHT22;13725;51.170;4.442;2024-03-08T15:42:57;12.70;99.90
25923;DHT22;13725;51.170;4.442;2024-03-08T15:45:24;12.70;99.90
25923;DHT22;13725;51.170;4.442;2024-03-08T15:47:52;12.70;99.90
25923;DHT22;13725;51.170;4.442;2024-03-08T15:50:18;12.70;99.90
25923;DHT22;13725;51.170;4.442;2024-03-08T15:52:49;12.70;99.90
25923;DHT22;13725;51.170;4.442;2024-03-08T15:55:15;12.70;99.90
25923;DHT22;13725;51.170;4.442;2024-03-08T15:57:48;12.60;99.90
25923;DHT22;13725;51.170;4.442;2024-03-08T16:00:19;12.60;99.90
25923;DHT22;13725;51.170;4.442;2024-03-08T16:03:05;12.60;99.90
25923;DHT22;13725;51.170;4.442;2024-03-08T16:05:41;12.50;99.90
25923;DHT22;13725;51.170;4.442;2024-03-08T16:08:10;12.60;99.90
25923;DHT22;13725;51.170;4.442;2024-03-08T16:10:52;12.50;99.90
25923;DHT22;13725;51.170;4.442;2024-03-08T16:13:23;12.40;99.90
25923;DHT22;13725;51.170;4.442;2024-03-08T16:15:51;12.40;99.90
25923;DHT22;13725;51.170;4.442;2024-03-08T16:18:18;12.40;99.90